Antonios — SY8410 — position and weather

sailwx.info

Track history (hours):
 
Tides and Currents Weather Stations Pressure Air Temp Water Temp Dewpoint Dewpoint Depression Visibility Wind Speed Wind Dir Waves Ship Positions

Antonios

Last reported at 2018-May-21 03:04 UTC. Time now 2018-May-27 08:11 UTC.
Position N 37°11' E 025°48'.

Length 57 m; draft 3 m.

Type: Tanker. MMSI: 239191300.

Date/timePositionNaut miles runAvg speedWind from/ knotsBaromVisibWave heightAir tempDewpointWater temp
2018-May-21 03:04N 37°11' E 025°48'1 9.2
2018-May-21 03:00N 37°11' E 025°48'5 9.4
2018-May-21 02:30N 37°12' E 025°42'12 9.5
2018-May-21 01:15N 37°15' E 025°27'2 9.4
2018-May-21 01:00N 37°15' E 025°25'5 9.3
2018-May-21 00:30N 37°16' E 025°19'5 9.1
2018-May-21 00:00N 37°17' E 025°13'4 9.2
2018-May-20 23:30N 37°18' E 025°08'5 9.5
2018-May-20 23:00N 37°19' E 025°02'5 9.5
2018-May-20 22:30N 37°20' E 024°56'5 9.4
2018-May-20 22:00N 37°21' E 024°50'5 9.4
2018-May-20 21:30N 37°23' E 024°45'47 9.2
2018-May-20 16:23N 37°36' E 023°48'4 9.9
2018-May-20 16:00N 37°37' E 023°43'5 9.8
2018-May-20 15:30N 37°37' E 023°37'5 9.7
2018-May-20 15:00N 37°39' E 023°31'5 9.7
2018-May-20 14:30N 37°39' E 023°25'5 9.6
2018-May-20 14:00N 37°40' E 023°19'5 9.3
2018-May-20 13:30N 37°44' E 023°16'510.0
2018-May-20 13:00N 37°49' E 023°13'5 9.4
2018-May-20 12:30N 37°52' E 023°09'4 7.7
2018-May-20 12:00N 37°55' E 023°05'0 0.2
2018-May-20 11:30N 37°55' E 023°05'0 0.0
2018-May-20 11:00N 37°55' E 023°05'0 0.0
2018-May-20 10:30N 37°55' E 023°05'0 0.0
2018-May-20 10:00N 37°55' E 023°05'0 0.0
2018-May-20 09:30N 37°55' E 023°05'0 0.0
2018-May-20 09:00N 37°55' E 023°05'0 0.0
2018-May-20 08:30N 37°55' E 023°05'0 0.0
2018-May-20 08:00N 37°55' E 023°05'0 0.0
2018-May-20 07:30N 37°55' E 023°05'0 0.0
2018-May-20 07:00N 37°55' E 023°05'0 0.0
2018-May-20 06:30N 37°55' E 023°05'0 0.0
2018-May-20 06:00N 37°55' E 023°05'0 0.0
2018-May-20 05:30N 37°55' E 023°05'0 0.0
2018-May-20 05:00N 37°55' E 023°05'0 0.0
2018-May-20 04:30N 37°55' E 023°05'1 1.2
2018-May-20 04:00N 37°55' E 023°06'1 3.0
2018-May-20 03:30N 37°53' E 023°07'0 0.7
2018-May-20 03:00N 37°54' E 023°07'4 8.1
2018-May-20 02:30N 37°53' E 023°12'5 9.3
2018-May-20 02:00N 37°52' E 023°18'510.0
2018-May-20 01:30N 37°51' E 023°24'510.4
2018-May-20 01:00N 37°50' E 023°31'5 9.9
2018-May-20 00:30N 37°51' E 023°37'4 8.6
2018-May-20 00:00N 37°49' E 023°41'510.5
2018-May-19 23:30N 37°44' E 023°44'7 9.7
2018-May-19 22:45N 37°39' E 023°51'4510.1
2018-May-19 18:17N 37°24' E 024°44'310.0
2018-May-19 18:00N 37°23' E 024°47'510.1
2018-May-19 17:30N 37°21' E 024°53'510.1
2018-May-19 17:00N 37°20' E 024°59'610.1
2018-May-19 16:25N 37°19' E 025°07'410.6
2018-May-19 16:00N 37°18' E 025°12'510.4
2018-May-19 15:30N 37°17' E 025°18'510.2
2018-May-19 15:00N 37°16' E 025°25'510.2
2018-May-19 14:29N 37°15' E 025°31'610.4
2018-May-19 13:52N 37°13' E 025°39'410.4
2018-May-19 13:30N 37°12' E 025°44'  
Track history (hours):
 
Tides and Currents Weather Stations Pressure Air Temp Water Temp Dewpoint Dewpoint Depression Visibility Wind Speed Wind Dir Waves Ship Positions

Antonios

Last reported at 2018-May-21 03:04 UTC. Time now 2018-May-27 08:11 UTC.
Position N 37°11' E 025°48'.

Length 57 m; draft 3 m.

Type: Tanker. MMSI: 239191300.

Date/timePositionNaut miles runAvg speedWind from/ knotsBaromVisibWave heightAir tempDewpointWater temp
2018-May-21 03:04N 37°11' E 025°48'1 9.2
2018-May-21 03:00N 37°11' E 025°48'5 9.4
2018-May-21 02:30N 37°12' E 025°42'12 9.5
2018-May-21 01:15N 37°15' E 025°27'2 9.4
2018-May-21 01:00N 37°15' E 025°25'5 9.3
2018-May-21 00:30N 37°16' E 025°19'5 9.1
2018-May-21 00:00N 37°17' E 025°13'4 9.2
2018-May-20 23:30N 37°18' E 025°08'5 9.5
2018-May-20 23:00N 37°19' E 025°02'5 9.5
2018-May-20 22:30N 37°20' E 024°56'5 9.4
2018-May-20 22:00N 37°21' E 024°50'5 9.4
2018-May-20 21:30N 37°23' E 024°45'47 9.2
2018-May-20 16:23N 37°36' E 023°48'4 9.9
2018-May-20 16:00N 37°37' E 023°43'5 9.8
2018-May-20 15:30N 37°37' E 023°37'5 9.7
2018-May-20 15:00N 37°39' E 023°31'5 9.7
2018-May-20 14:30N 37°39' E 023°25'5 9.6
2018-May-20 14:00N 37°40' E 023°19'5 9.3
2018-May-20 13:30N 37°44' E 023°16'510.0
2018-May-20 13:00N 37°49' E 023°13'5 9.4
2018-May-20 12:30N 37°52' E 023°09'4 7.7
2018-May-20 12:00N 37°55' E 023°05'0 0.2
2018-May-20 11:30N 37°55' E 023°05'0 0.0
2018-May-20 11:00N 37°55' E 023°05'0 0.0
2018-May-20 10:30N 37°55' E 023°05'0 0.0
2018-May-20 10:00N 37°55' E 023°05'0 0.0
2018-May-20 09:30N 37°55' E 023°05'0 0.0
2018-May-20 09:00N 37°55' E 023°05'0 0.0
2018-May-20 08:30N 37°55' E 023°05'0 0.0
2018-May-20 08:00N 37°55' E 023°05'0 0.0
2018-May-20 07:30N 37°55' E 023°05'0 0.0
2018-May-20 07:00N 37°55' E 023°05'0 0.0
2018-May-20 06:30N 37°55' E 023°05'0 0.0
2018-May-20 06:00N 37°55' E 023°05'0 0.0
2018-May-20 05:30N 37°55' E 023°05'0 0.0
2018-May-20 05:00N 37°55' E 023°05'0 0.0
2018-May-20 04:30N 37°55' E 023°05'1 1.2
2018-May-20 04:00N 37°55' E 023°06'1 3.0
2018-May-20 03:30N 37°53' E 023°07'0 0.7
2018-May-20 03:00N 37°54' E 023°07'4 8.1
2018-May-20 02:30N 37°53' E 023°12'5 9.3
2018-May-20 02:00N 37°52' E 023°18'510.0
2018-May-20 01:30N 37°51' E 023°24'510.4
2018-May-20 01:00N 37°50' E 023°31'5 9.9
2018-May-20 00:30N 37°51' E 023°37'4 8.6
2018-May-20 00:00N 37°49' E 023°41'510.5
2018-May-19 23:30N 37°44' E 023°44'7 9.7
2018-May-19 22:45N 37°39' E 023°51'4510.1
2018-May-19 18:17N 37°24' E 024°44'310.0
2018-May-19 18:00N 37°23' E 024°47'510.1
2018-May-19 17:30N 37°21' E 024°53'510.1
2018-May-19 17:00N 37°20' E 024°59'610.1
2018-May-19 16:25N 37°19' E 025°07'410.6
2018-May-19 16:00N 37°18' E 025°12'510.4
2018-May-19 15:30N 37°17' E 025°18'510.2
2018-May-19 15:00N 37°16' E 025°25'510.2
2018-May-19 14:29N 37°15' E 025°31'610.4
2018-May-19 13:52N 37°13' E 025°39'410.4
2018-May-19 13:30N 37°12' E 025°44'  

Dump ship's entire track history